Time;durP1;ratioP1;P1;durP2;ratioP2;P2;SDS_P1;SDS_P2;PMS_P1;PMS_P2;Temp;Humidity;BMP_temperature;BMP_pressure;BME280_temperature;BME280_humidity;BME280_pressure;Samples;Min_cycle;Max_cycle;Signal;HPM_P1;HPM_P2
2022/01/29 00:00:57;;;;;;;36.38;17.35;;;;;;;;;;5057491;28;20037;-94
2022/01/29 00:03:23;;;;;;;37.30;16.83;;;;;;;;;;5058992;28;20072;-94
2022/01/29 00:05:49;;;;;;;33.22;15.75;;;;;;;;;;5056471;28;20076;-94
2022/01/29 00:08:18;;;;;;;27.48;15.52;;;;;;;;;;5042112;28;20041;-94
2022/01/29 00:10:48;;;;;;;33.47;16.13;;;;;;;;;;5041839;28;20120;-94
2022/01/29 00:13:14;;;;;;;33.80;15.93;;;;;;;;;;5039651;28;20128;-93
2022/01/29 00:15:40;;;;;;;28.20;14.18;;;;;;;;;;5055438;28;20048;-95
2022/01/29 00:18:06;;;;;;;30.58;15.52;;;;;;;;;;5055838;28;20041;-95
2022/01/29 00:20:33;;;;;;;32.80;16.42;;;;;;;;;;5055669;28;20045;-94
2022/01/29 00:22:59;;;;;;;28.23;15.23;;;;;;;;;;5056163;28;20484;-94
2022/01/29 00:25:25;;;;;;;31.50;16.60;;;;;;;;;;5059866;28;20075;-94
2022/01/29 00:27:54;;;;;;;27.88;14.55;;;;;;;;;;5058126;28;20033;-94
2022/01/29 00:30:30;;;;;;;36.75;17.30;;;;;;;;;;5059553;28;20033;-95
2022/01/29 00:32:56;;;;;;;30.05;16.83;;;;;;;;;;5040029;28;20041;-94
2022/01/29 00:35:22;;;;;;;28.55;15.85;;;;;;;;;;5039516;28;20439;-94
2022/01/29 00:37:48;;;;;;;34.40;16.58;;;;;;;;;;5062243;28;20081;-93
2022/01/29 00:40:14;;;;;;;29.33;15.98;;;;;;;;;;5057575;28;20036;-95
2022/01/29 00:42:41;;;;;;;31.40;17.35;;;;;;;;;;5057854;28;20033;-94
2022/01/29 00:45:07;;;;;;;28.92;16.30;;;;;;;;;;5041478;28;20040;-94
2022/01/29 00:47:36;;;;;;;30.40;15.80;;;;;;;;;;5062571;28;20079;-93
2022/01/29 00:50:02;;;;;;;34.13;16.58;;;;;;;;;;5062724;28;20502;-95
2022/01/29 00:52:28;;;;;;;29.30;16.13;;;;;;;;;;5058285;28;20047;-93
2022/01/29 00:54:54;;;;;;;30.35;16.42;;;;;;;;;;5058220;28;20163;-93
2022/01/29 00:57:20;;;;;;;27.65;16.67;;;;;;;;;;5054438;28;20079;-93
2022/01/29 00:59:46;;;;;;;27.65;16.77;;;;;;;;;;5037899;28;20041;-92
2022/01/29 01:02:13;;;;;;;33.95;17.88;;;;;;;;;;5054173;28;20074;-93
2022/01/29 01:04:40;;;;;;;29.88;17.15;;;;;;;;;;5037568;28;20045;-93
2022/01/29 01:07:07;;;;;;;27.70;16.27;;;;;;;;;;5053999;28;20041;-94
2022/01/29 01:09:33;;;;;;;26.88;16.92;;;;;;;;;;5053531;28;20059;-94
2022/01/29 01:11:59;;;;;;;27.90;16.65;;;;;;;;;;5054316;28;20076;-93
2022/01/29 01:14:25;;;;;;;28.13;17.02;;;;;;;;;;5036757;28;20044;-93
2022/01/29 01:16:54;;;;;;;27.65;16.60;;;;;;;;;;5053529;28;20048;-93
2022/01/29 01:19:25;;;;;;;29.45;16.55;;;;;;;;;;5053545;28;20481;-93
2022/01/29 01:21:52;;;;;;;31.10;17.60;;;;;;;;;;5053526;28;20045;-92
2022/01/29 01:24:17;;;;;;;25.42;16.67;;;;;;;;;;5053446;28;20045;-94
2022/01/29 01:26:44;;;;;;;34.28;17.20;;;;;;;;;;5053695;28;20041;-93
2022/01/29 01:29:10;;;;;;;28.83;17.33;;;;;;;;;;5052918;28;20080;-92
2022/01/29 01:31:37;;;;;;;32.42;16.05;;;;;;;;;;5053517;28;20407;-94
2022/01/29 01:34:05;;;;;;;27.42;16.75;;;;;;;;;;5052784;28;20404;-95
2022/01/29 01:36:32;;;;;;;25.40;16.60;;;;;;;;;;5036993;28;20106;-94
2022/01/29 01:39:06;;;;;;;26.02;16.30;;;;;;;;;;5037566;28;20118;-94
2022/01/29 01:41:38;;;;;;;32.38;16.15;;;;;;;;;;5037029;28;20392;-93
2022/01/29 01:44:05;;;;;;;29.75;16.70;;;;;;;;;;5036545;28;20040;-94
2022/01/29 01:46:31;;;;;;;30.90;17.20;;;;;;;;;;5053492;28;20064;-95
2022/01/29 01:48:58;;;;;;;30.60;16.42;;;;;;;;;;5053059;28;20060;-93
2022/01/29 01:51:26;;;;;;;30.60;16.42;;;;;;;;;;5053269;28;20487;-94
2022/01/29 01:53:53;;;;;;;30.85;16.88;;;;;;;;;;5052846;28;20478;-95
2022/01/29 01:56:19;;;;;;;27.40;15.88;;;;;;;;;;5052945;28;20033;-95
2022/01/29 01:58:46;;;;;;;31.75;16.30;;;;;;;;;;5036321;28;20033;-95
2022/01/29 02:01:12;;;;;;;30.83;17.15;;;;;;;;;;5053052;28;20048;-93
2022/01/29 02:03:38;;;;;;;33.47;17.92;;;;;;;;;;5035809;28;20124;-95
2022/01/29 02:06:04;;;;;;;42.65;18.80;;;;;;;;;;5036399;28;20080;-94
2022/01/29 02:08:31;;;;;;;33.78;18.27;;;;;;;;;;5052413;28;20373;-94
2022/01/29 02:11:06;;;;;;;35.33;17.75;;;;;;;;;;5036393;28;20044;-94
2022/01/29 02:13:33;;;;;;;34.95;18.83;;;;;;;;;;5052621;28;20480;-93
2022/01/29 02:16:01;;;;;;;35.05;19.15;;;;;;;;;;5054384;28;20499;-95
2022/01/29 02:18:27;;;;;;;36.53;18.17;;;;;;;;;;5053695;28;20120;-93
2022/01/29 02:20:53;;;;;;;33.42;17.83;;;;;;;;;;5035962;28;20491;-94
2022/01/29 02:23:19;;;;;;;33.15;17.58;;;;;;;;;;5035612;28;20086;-91
2022/01/29 02:25:46;;;;;;;38.20;19.50;;;;;;;;;;5052583;28;20051;-94
2022/01/29 02:28:13;;;;;;;35.85;17.80;;;;;;;;;;5036558;28;20182;-92
2022/01/29 02:30:43;;;;;;;34.70;17.52;;;;;;;;;;5052461;28;20059;-93
2022/01/29 02:33:12;;;;;;;37.25;20.08;;;;;;;;;;5036115;28;20489;-93
2022/01/29 02:35:42;;;;;;;38.97;18.52;;;;;;;;;;5035506;28;20056;-93
2022/01/29 02:38:13;;;;;;;36.85;18.52;;;;;;;;;;5036253;28;20055;-93
2022/01/29 02:40:50;;;;;;;44.10;19.02;;;;;;;;;;5035538;28;20151;-93
2022/01/29 02:43:25;;;;;;;41.28;18.23;;;;;;;;;;5052369;28;20048;-95
2022/01/29 02:45:52;;;;;;;41.28;19.13;;;;;;;;;;5054516;28;20500;-94
2022/01/29 02:48:20;;;;;;;40.70;18.33;;;;;;;;;;5023472;28;20083;-95
2022/01/29 02:50:46;;;;;;;33.03;18.20;;;;;;;;;;5023130;28;20079;-95
2022/01/29 02:53:13;;;;;;;36.60;17.85;;;;;;;;;;5023275;28;20045;-93
2022/01/29 02:55:39;;;;;;;37.42;18.77;;;;;;;;;;5023015;28;20076;-94
2022/01/29 02:58:06;;;;;;;40.58;18.52;;;;;;;;;;5039552;28;20128;-94
2022/01/29 03:00:32;;;;;;;36.97;18.92;;;;;;;;;;5022876;28;20044;-95
2022/01/29 03:02:58;;;;;;;33.08;18.80;;;;;;;;;;5022739;28;20041;-93
2022/01/29 03:05:24;;;;;;;37.55;19.27;;;;;;;;;;5039474;28;20045;-96
2022/01/29 03:07:53;;;;;;;40.20;19.20;;;;;;;;;;5023368;28;20044;-95
2022/01/29 03:10:22;;;;;;;44.47;19.20;;;;;;;;;;5039092;28;20209;-94
2022/01/29 03:12:48;;;;;;;39.28;18.42;;;;;;;;;;5023118;28;20182;-93
2022/01/29 03:15:14;;;;;;;36.95;17.05;;;;;;;;;;5039121;28;20515;-94
2022/01/29 03:17:41;;;;;;;39.97;18.48;;;;;;;;;;5022897;28;20040;-94
2022/01/29 03:20:08;;;;;;;35.65;17.20;;;;;;;;;;5039041;28;20051;-93
2022/01/29 03:22:34;;;;;;;34.22;17.02;;;;;;;;;;5039418;28;20041;-94
2022/01/29 03:25:03;;;;;;;39.60;18.17;;;;;;;;;;5039180;28;20041;-94
2022/01/29 03:27:29;;;;;;;38.53;18.35;;;;;;;;;;5022763;28;20044;-94
2022/01/29 03:29:55;;;;;;;35.63;16.77;;;;;;;;;;5038842;28;20051;-95
2022/01/29 03:32:21;;;;;;;38.53;16.98;;;;;;;;;;5039082;28;20044;-93
2022/01/29 03:34:47;;;;;;;39.38;17.92;;;;;;;;;;5022135;28;20045;-93
2022/01/29 03:37:13;;;;;;;38.50;16.55;;;;;;;;;;5039431;28;20035;-93
2022/01/29 03:39:42;;;;;;;37.45;17.25;;;;;;;;;;5038470;28;20037;-93
2022/01/29 03:42:10;;;;;;;37.88;17.45;;;;;;;;;;5038981;28;20033;-94
2022/01/29 03:44:36;;;;;;;34.53;16.50;;;;;;;;;;5021855;28;20044;-93
2022/01/29 03:47:02;;;;;;;35.35;16.52;;;;;;;;;;5010606;28;20053;-93
2022/01/29 03:49:28;;;;;;;31.77;15.35;;;;;;;;;;5002146;28;20049;-96
2022/01/29 03:51:54;;;;;;;34.65;16.08;;;;;;;;;;5018711;28;20099;-94
2022/01/29 03:54:22;;;;;;;31.02;15.75;;;;;;;;;;5018302;28;20045;-94
2022/01/29 03:56:48;;;;;;;35.45;15.75;;;;;;;;;;5018840;28;20041;-96
2022/01/29 03:59:14;;;;;;;32.55;15.50;;;;;;;;;;5019087;28;20041;-94
2022/01/29 04:01:40;;;;;;;31.98;16.40;;;;;;;;;;5002361;28;20133;-94
2022/01/29 04:04:06;;;;;;;25.90;14.52;;;;;;;;;;5002592;28;20069;-94
2022/01/29 04:06:33;;;;;;;31.00;15.73;;;;;;;;;;5002512;28;20372;-96
2022/01/29 04:09:04;;;;;;;27.15;13.95;;;;;;;;;;5018591;28;20137;-95
2022/01/29 04:11:30;;;;;;;33.75;15.88;;;;;;;;;;5018082;28;20042;-95
2022/01/29 04:13:56;;;;;;;29.63;15.07;;;;;;;;;;5002074;28;20485;-94
2022/01/29 04:16:23;;;;;;;26.60;14.27;;;;;;;;;;5018596;28;20060;-94
2022/01/29 04:18:49;;;;;;;27.58;14.68;;;;;;;;;;5018519;28;20491;-95
2022/01/29 04:21:15;;;;;;;32.00;14.82;;;;;;;;;;5002581;28;20045;-94
2022/01/29 04:23:41;;;;;;;30.70;15.15;;;;;;;;;;5018349;28;20045;-95
2022/01/29 04:26:07;;;;;;;28.17;14.25;;;;;;;;;;5019306;28;20077;-94
2022/01/29 04:28:39;;;;;;;30.95;14.55;;;;;;;;;;5018291;28;20400;-92
2022/01/29 04:31:10;;;;;;;26.02;15.25;;;;;;;;;;5001836;28;20042;-94
2022/01/29 04:33:37;;;;;;;28.13;14.55;;;;;;;;;;5001833;28;20037;-93
2022/01/29 04:36:04;;;;;;;29.75;15.00;;;;;;;;;;5018307;28;20041;-93
2022/01/29 04:38:30;;;;;;;28.85;14.70;;;;;;;;;;5001716;28;20056;-95
2022/01/29 04:40:57;;;;;;;33.33;14.65;;;;;;;;;;5017721;28;20068;-92
2022/01/29 04:43:24;;;;;;;27.67;14.98;;;;;;;;;;5001892;28;20065;-94
2022/01/29 04:45:50;;;;;;;25.92;14.57;;;;;;;;;;5019414;28;20048;-94
2022/01/29 04:48:16;;;;;;;25.63;15.52;;;;;;;;;;5038074;28;20423;-93
2022/01/29 04:50:42;;;;;;;24.23;14.68;;;;;;;;;;5021433;28;20500;-93
2022/01/29 04:53:08;;;;;;;31.55;14.63;;;;;;;;;;5037779;28;20119;-94
2022/01/29 04:55:36;;;;;;;29.73;13.27;;;;;;;;;;5020470;28;20408;-95
2022/01/29 04:58:03;;;;;;;24.23;14.10;;;;;;;;;;5021586;28;20085;-93
2022/01/29 05:00:29;;;;;;;25.75;14.18;;;;;;;;;;5037564;28;20040;-95
2022/01/29 05:02:56;;;;;;;28.60;13.38;;;;;;;;;;5037313;28;20033;-92
2022/01/29 05:05:22;;;;;;;31.25;13.82;;;;;;;;;;5021034;28;20508;-93
2022/01/29 05:07:49;;;;;;;29.70;13.43;;;;;;;;;;5036557;28;20064;-95
2022/01/29 05:10:15;;;;;;;26.13;13.57;;;;;;;;;;5036823;28;20131;-94
2022/01/29 05:16:04;;;;;;;22.55;13.77;;;;;;;;;;5037048;28;20488;-95
2022/01/29 05:28:58;;;;;;;27.73;13.95;;;;;;;;;;5036720;28;20472;-93
2022/01/29 05:31:24;;;;;;;27.75;13.65;;;;;;;;;;5036156;28;20049;-93
2022/01/29 05:33:50;;;;;;;23.75;13.43;;;;;;;;;;5036440;28;20044;-94
2022/01/29 05:36:16;;;;;;;32.83;14.98;;;;;;;;;;5019889;28;20029;-92
2022/01/29 05:38:43;;;;;;;26.58;13.10;;;;;;;;;;5020428;28;20059;-93
2022/01/29 05:41:09;;;;;;;27.83;13.30;;;;;;;;;;5019351;28;20043;-94
2022/01/29 05:43:35;;;;;;;25.13;12.52;;;;;;;;;;5036003;28;20048;-93
2022/01/29 05:46:01;;;;;;;24.25;12.82;;;;;;;;;;5019460;28;20400;-92
2022/01/29 05:48:27;;;;;;;24.95;13.73;;;;;;;;;;5035893;28;20052;-94
2022/01/29 05:50:53;;;;;;;23.83;13.32;;;;;;;;;;5035861;28;20484;-92
2022/01/29 05:53:19;;;;;;;26.52;13.57;;;;;;;;;;5065771;28;20407;-93
2022/01/29 05:55:45;;;;;;;23.58;13.32;;;;;;;;;;5055285;28;20036;-93
2022/01/29 05:58:11;;;;;;;24.00;12.65;;;;;;;;;;5062117;28;20116;-92
2022/01/29 06:00:37;;;;;;;23.15;12.77;;;;;;;;;;5055192;28;20146;-94
2022/01/29 06:03:03;;;;;;;23.10;12.88;;;;;;;;;;5038414;28;20044;-92
2022/01/29 06:05:29;;;;;;;22.77;12.50;;;;;;;;;;5046895;28;20065;-93
2022/01/29 06:07:55;;;;;;;31.58;13.50;;;;;;;;;;5047024;28;20044;-92
2022/01/29 06:10:22;;;;;;;25.38;13.40;;;;;;;;;;5055185;28;20044;-93
2022/01/29 06:13:08;;;;;;;26.45;13.25;;;;;;;;;;5070312;28;20051;-93
2022/01/29 06:15:35;;;;;;;;;;;;;;;;;;5055425;28;20480;-94
2022/01/29 06:18:01;;;;;;;22.20;12.23;;;;;;;;;;5039987;28;20425;-92
2022/01/29 06:20:27;;;;;;;26.42;12.70;;;;;;;;;;5042522;28;20097;-95
2022/01/29 06:22:54;;;;;;;22.15;12.52;;;;;;;;;;5055150;28;20032;-91
2022/01/29 06:25:20;;;;;;;23.75;11.90;;;;;;;;;;5041565;28;20072;-92
2022/01/29 06:27:46;;;;;;;20.17;11.82;;;;;;;;;;5038290;28;20052;-93
2022/01/29 06:30:12;;;;;;;21.02;11.77;;;;;;;;;;5049276;28;20048;-94
2022/01/29 06:32:38;;;;;;;23.10;13.40;;;;;;;;;;5071287;28;20048;-92
2022/01/29 06:35:04;;;;;;;22.00;11.85;;;;;;;;;;5058764;28;20043;-93
2022/01/29 06:37:30;;;;;;;26.80;12.73;;;;;;;;;;5061572;28;20036;-93
2022/01/29 06:39:56;;;;;;;22.58;12.23;;;;;;;;;;5071336;28;20040;-94
2022/01/29 06:42:22;;;;;;;24.42;12.98;;;;;;;;;;5065574;28;20048;-93
2022/01/29 06:44:48;;;;;;;20.02;12.10;;;;;;;;;;5043670;28;20492;-94
2022/01/29 06:47:14;;;;;;;20.50;11.98;;;;;;;;;;5046618;28;20056;-94
2022/01/29 06:49:40;;;;;;;21.60;11.35;;;;;;;;;;5057688;28;20048;-94
2022/01/29 06:52:06;;;;;;;20.83;12.38;;;;;;;;;;5060462;28;20147;-92
2022/01/29 06:54:32;;;;;;;18.48;10.70;;;;;;;;;;5047016;28;20562;-93
2022/01/29 06:56:58;;;;;;;20.67;11.68;;;;;;;;;;5063105;28;20196;-92
2022/01/29 06:59:24;;;;;;;23.08;10.93;;;;;;;;;;5071402;28;20105;-92
2022/01/29 07:01:50;;;;;;;24.83;11.38;;;;;;;;;;5058628;28;20040;-94
2022/01/29 07:04:16;;;;;;;19.88;11.45;;;;;;;;;;5061949;28;20472;-92
2022/01/29 07:06:42;;;;;;;21.95;11.70;;;;;;;;;;5054428;28;20052;-94
2022/01/29 07:09:08;;;;;;;25.63;11.70;;;;;;;;;;5071463;28;20048;-93
2022/01/29 07:11:34;;;;;;;17.52;10.80;;;;;;;;;;5046863;28;20040;-95
2022/01/29 07:14:03;;;;;;;20.98;10.93;;;;;;;;;;5049928;28;20036;-92
2022/01/29 07:16:34;;;;;;;20.58;11.35;;;;;;;;;;5054475;28;20036;-92
2022/01/29 07:19:00;;;;;;;19.08;10.80;;;;;;;;;;5054604;28;20052;-94
2022/01/29 07:21:26;;;;;;;18.45;10.07;;;;;;;;;;5054774;28;20377;-93
2022/01/29 07:23:55;;;;;;;16.95;10.15;;;;;;;;;;5047622;28;20098;-94
2022/01/29 07:26:21;;;;;;;18.95;10.15;;;;;;;;;;5054799;28;20037;-93
2022/01/29 07:28:47;;;;;;;18.65;10.57;;;;;;;;;;5071093;28;20407;-94
2022/01/29 07:31:16;;;;;;;17.42;10.10;;;;;;;;;;5055206;28;20147;-94
2022/01/29 07:33:42;;;;;;;16.60;9.68;;;;;;;;;;5058533;28;20063;-93
2022/01/29 07:36:08;;;;;;;21.88;9.68;;;;;;;;;;5057965;28;20499;-92
2022/01/29 07:38:34;;;;;;;20.88;10.95;;;;;;;;;;5057925;28;20071;-94
2022/01/29 07:41:00;;;;;;;20.63;10.20;;;;;;;;;;5073771;28;20090;-93
2022/01/29 07:43:26;;;;;;;19.02;10.57;;;;;;;;;;5070844;28;20499;-92
2022/01/29 07:45:52;;;;;;;19.40;10.20;;;;;;;;;;5041065;28;20040;-94
2022/01/29 07:48:18;;;;;;;20.17;10.82;;;;;;;;;;5040682;28;20079;-92
2022/01/29 07:50:45;;;;;;;16.25;9.93;;;;;;;;;;5074480;28;20075;-93
2022/01/29 07:53:11;;;;;;;16.20;9.80;;;;;;;;;;5041604;28;20040;-91
2022/01/29 07:55:37;;;;;;;22.95;10.02;;;;;;;;;;5038202;28;20170;-92
2022/01/29 07:58:05;;;;;;;19.92;10.18;;;;;;;;;;5071191;28;20041;-95
2022/01/29 08:00:31;;;;;;;20.00;10.20;;;;;;;;;;5043859;28;20033;-93
2022/01/29 08:02:57;;;;;;;19.75;11.02;;;;;;;;;;5074051;28;20036;-93
2022/01/29 08:05:23;;;;;;;17.23;9.98;;;;;;;;;;5074571;28;20047;-94
2022/01/29 08:07:49;;;;;;;21.08;11.02;;;;;;;;;;5063378;28;20036;-93
2022/01/29 08:10:15;;;;;;;18.08;10.60;;;;;;;;;;5074023;28;20491;-94
2022/01/29 08:12:41;;;;;;;21.42;10.75;;;;;;;;;;5068938;28;20102;-92
2022/01/29 08:15:08;;;;;;;23.98;9.93;;;;;;;;;;5071173;28;20086;-93
2022/01/29 08:17:34;;;;;;;16.00;9.38;;;;;;;;;;5057020;28;20036;-93
2022/01/29 08:20:00;;;;;;;21.02;9.98;;;;;;;;;;5072866;28;20036;-92
2022/01/29 08:22:26;;;;;;;16.70;9.88;;;;;;;;;;5048738;28;20123;-93
2022/01/29 08:24:53;;;;;;;15.55;9.35;;;;;;;;;;5051804;28;20045;-93
2022/01/29 08:27:22;;;;;;;18.75;10.13;;;;;;;;;;5039690;28;20076;-94
2022/01/29 08:29:48;;;;;;;18.27;10.45;;;;;;;;;;5056508;28;20161;-92
2022/01/29 08:32:14;;;;;;;19.67;10.52;;;;;;;;;;5056887;28;20102;-91
2022/01/29 08:34:42;;;;;;;16.80;9.57;;;;;;;;;;5057106;28;20040;-92
2022/01/29 08:37:09;;;;;;;19.60;10.88;;;;;;;;;;5038059;28;20056;-92
2022/01/29 08:39:35;;;;;;;17.70;9.95;;;;;;;;;;5020982;28;20183;-92
2022/01/29 08:42:01;;;;;;;23.98;10.15;;;;;;;;;;5047044;28;20041;-92
2022/01/29 08:44:27;;;;;;;17.50;9.52;;;;;;;;;;5049534;28;20526;-95
2022/01/29 08:46:56;;;;;;;14.48;9.10;;;;;;;;;;5044318;28;20100;-94
2022/01/29 08:49:25;;;;;;;18.10;9.65;;;;;;;;;;5037838;28;20084;-95
2022/01/29 08:51:51;;;;;;;19.02;9.15;;;;;;;;;;5054295;28;20382;-96
2022/01/29 08:54:20;;;;;;;16.40;8.52;;;;;;;;;;5055817;28;20128;-94
2022/01/29 08:56:46;;;;;;;18.88;9.05;;;;;;;;;;5058760;28;20120;-93
2022/01/29 08:59:12;;;;;;;15.05;8.40;;;;;;;;;;5037210;28;20087;-94
2022/01/29 09:01:38;;;;;;;15.07;8.25;;;;;;;;;;5054238;28;20037;-96
2022/01/29 09:04:04;;;;;;;15.57;8.18;;;;;;;;;;5054124;28;20068;-96
2022/01/29 09:06:31;;;;;;;16.45;7.70;;;;;;;;;;5037102;28;20044;-94
2022/01/29 09:08:57;;;;;;;18.42;8.15;;;;;;;;;;5054286;28;20047;-93
2022/01/29 09:11:26;;;;;;;14.98;7.07;;;;;;;;;;5054481;28;20120;-93
2022/01/29 09:13:55;;;;;;;13.57;7.10;;;;;;;;;;5053303;28;20077;-93
2022/01/29 09:16:21;;;;;;;13.65;6.28;;;;;;;;;;5053557;28;20037;-93
2022/01/29 09:18:47;;;;;;;14.88;6.68;;;;;;;;;;5053290;28;20040;-93
2022/01/29 09:21:13;;;;;;;13.10;6.00;;;;;;;;;;5054139;28;20090;-93
2022/01/29 09:23:39;;;;;;;14.55;6.57;;;;;;;;;;5053564;28;20056;-94
2022/01/29 09:26:05;;;;;;;12.02;5.55;;;;;;;;;;5053580;28;20048;-93
2022/01/29 09:28:31;;;;;;;11.88;4.97;;;;;;;;;;5037080;28;20045;-96
2022/01/29 09:30:57;;;;;;;12.00;4.97;;;;;;;;;;5053237;28;20052;-95
2022/01/29 09:33:23;;;;;;;13.45;4.85;;;;;;;;;;5036534;28;20048;-94
2022/01/29 09:35:49;;;;;;;12.20;5.25;;;;;;;;;;5053486;28;20048;-94
2022/01/29 09:38:15;;;;;;;11.85;4.68;;;;;;;;;;5036529;28;20044;-93
2022/01/29 09:40:42;;;;;;;12.82;5.35;;;;;;;;;;5053829;28;20476;-92
2022/01/29 09:43:09;;;;;;;10.55;3.95;;;;;;;;;;5054037;28;20037;-93
2022/01/29 09:45:36;;;;;;;11.23;4.70;;;;;;;;;;5042319;28;20048;-92
2022/01/29 09:48:15;;;;;;;12.60;4.38;;;;;;;;;;5049246;28;20436;-93
2022/01/29 09:50:44;;;;;;;14.80;4.88;;;;;;;;;;5040703;28;20044;-91
2022/01/29 09:53:10;;;;;;;9.65;4.30;;;;;;;;;;5053982;28;20128;-92
2022/01/29 09:55:36;;;;;;;10.70;4.00;;;;;;;;;;5052728;28;20051;-94
2022/01/29 09:58:02;;;;;;;16.02;5.35;;;;;;;;;;5054037;28;20047;-95
2022/01/29 10:00:28;;;;;;;10.48;5.20;;;;;;;;;;5054763;28;20071;-95
2022/01/29 10:03:10;;;;;;;11.25;4.20;;;;;;;;;;5068550;28;20036;-91
2022/01/29 10:05:41;;;;;;;13.55;4.35;;;;;;;;;;5040007;28;20041;-93
2022/01/29 10:08:07;;;;;;;10.40;3.97;;;;;;;;;;5053821;28;20045;-94
2022/01/29 10:10:39;;;;;;;12.75;4.03;;;;;;;;;;5036416;28;20091;-94
2022/01/29 10:13:23;;;;;;;10.85;4.18;;;;;;;;;;5036225;28;20041;-96
2022/01/29 10:15:50;;;;;;;14.52;4.60;;;;;;;;;;5052562;28;20444;-92
2022/01/29 10:18:23;;;;;;;11.32;3.85;;;;;;;;;;5052185;28;20048;-92
2022/01/29 10:20:50;;;;;;;9.65;4.28;;;;;;;;;;5052714;28;20488;-93
2022/01/29 10:23:16;;;;;;;11.07;3.53;;;;;;;;;;5035850;28;20062;-94
2022/01/29 10:25:43;;;;;;;10.65;3.92;;;;;;;;;;5051970;28;20091;-96
2022/01/29 10:28:19;;;;;;;11.55;3.88;;;;;;;;;;5052196;28;20067;-94
2022/01/29 10:30:49;;;;;;;11.05;3.70;;;;;;;;;;5035778;28;20345;-92
2022/01/29 10:33:26;;;;;;;10.15;3.38;;;;;;;;;;5053436;28;20045;-92
2022/01/29 10:35:56;;;;;;;11.35;3.95;;;;;;;;;;5052345;28;20091;-95
2022/01/29 10:38:24;;;;;;;12.60;2.83;;;;;;;;;;5051996;28;20502;-94
2022/01/29 10:41:09;;;;;;;9.57;3.00;;;;;;;;;;5052636;28;20033;-92
2022/01/29 10:43:36;;;;;;;10.03;3.33;;;;;;;;;;5035408;28;20056;-93
2022/01/29 10:46:02;;;;;;;10.80;3.33;;;;;;;;;;5052246;28;20060;-94
2022/01/29 10:48:43;;;;;;;8.68;2.78;;;;;;;;;;5037097;28;20052;-93
2022/01/29 10:51:13;;;;;;;8.57;2.60;;;;;;;;;;5019347;28;20040;-94
2022/01/29 10:53:40;;;;;;;10.40;3.30;;;;;;;;;;5036498;28;20210;-95
2022/01/29 10:56:06;;;;;;;8.38;2.92;;;;;;;;;;5019115;28;20041;-93
2022/01/29 10:58:42;;;;;;;13.82;2.88;;;;;;;;;;5019293;28;20041;-94
2022/01/29 11:01:12;;;;;;;11.75;2.97;;;;;;;;;;5036201;28;20079;-94
2022/01/29 11:03:38;;;;;;;10.05;2.65;;;;;;;;;;5019199;28;20041;-96
2022/01/29 11:06:07;;;;;;;9.32;2.40;;;;;;;;;;5036944;28;20044;-93
2022/01/29 11:08:34;;;;;;;9.90;3.08;;;;;;;;;;5039627;28;20049;-94
2022/01/29 11:10:59;;;;;;;12.05;2.47;;;;;;;;;;5024791;28;20049;-92
2022/01/29 11:13:26;;;;;;;12.27;2.75;;;;;;;;;;5039043;28;20106;-93
2022/01/29 11:15:53;;;;;;;7.72;2.60;;;;;;;;;;5022462;28;20049;-93
2022/01/29 11:18:19;;;;;;;10.10;2.58;;;;;;;;;;5022724;28;20550;-93
2022/01/29 11:20:45;;;;;;;11.07;2.22;;;;;;;;;;5039260;28;20036;-93
2022/01/29 11:23:12;;;;;;;10.52;2.55;;;;;;;;;;5039178;28;20038;-94
2022/01/29 11:25:38;;;;;;;11.18;2.42;;;;;;;;;;5039081;28;20041;-93
2022/01/29 11:28:14;;;;;;;10.60;2.60;;;;;;;;;;5038865;28;20036;-92
2022/01/29 11:30:44;;;;;;;9.65;2.88;;;;;;;;;;5036290;28;20064;-92
2022/01/29 11:33:10;;;;;;;8.07;2.22;;;;;;;;;;5022222;28;20040;-93
2022/01/29 11:36:05;;;;;;;10.50;2.70;;;;;;;;;;5038373;28;20391;-95
2022/01/29 11:38:33;;;;;;;8.73;2.78;;;;;;;;;;5018114;28;20058;-93
2022/01/29 11:41:01;;;;;;;7.53;2.50;;;;;;;;;;5038542;28;20041;-91
2022/01/29 11:43:28;;;;;;;8.75;2.42;;;;;;;;;;5038802;28;20373;-92
2022/01/29 11:45:58;;;;;;;10.55;2.30;;;;;;;;;;5038248;28;20059;-92
2022/01/29 11:51:01;;;;;;;8.30;2.33;;;;;;;;;;5038869;28;20045;-94
2022/01/29 11:53:48;;;;;;;13.98;3.22;;;;;;;;;;5023404;28;20049;-94
2022/01/29 11:56:31;;;;;;;8.32;2.00;;;;;;;;;;5021707;28;20063;-93
2022/01/29 11:59:23;;;;;;;9.68;2.53;;;;;;;;;;5038582;28;20514;-94
2022/01/29 12:01:52;;;;;;;9.65;2.38;;;;;;;;;;5022206;28;20076;-93
2022/01/29 12:04:22;;;;;;;10.27;2.22;;;;;;;;;;5022022;28;20045;-93
2022/01/29 12:07:28;;;;;;;8.88;2.33;;;;;;;;;;5021913;28;20033;-93
2022/01/29 12:10:02;;;;;;;8.73;2.13;;;;;;;;;;5037205;28;20045;-95
2022/01/29 12:12:32;;;;;;;12.93;2.05;;;;;;;;;;5037999;28;20048;-93
2022/01/29 12:15:18;;;;;;;8.75;1.95;;;;;;;;;;5038019;28;20045;-91
2022/01/29 12:17:49;;;;;;;10.18;2.28;;;;;;;;;;5037308;28;20033;-93
2022/01/29 12:20:17;;;;;;;10.32;1.83;;;;;;;;;;5023846;28;20072;-93
2022/01/29 12:22:44;;;;;;;11.38;2.00;;;;;;;;;;5038067;28;20079;-94
2022/01/29 12:25:11;;;;;;;10.98;2.00;;;;;;;;;;5021141;28;20491;-94
2022/01/29 12:27:41;;;;;;;11.48;2.58;;;;;;;;;;5020936;28;20048;-92
2022/01/29 12:30:08;;;;;;;11.00;2.15;;;;;;;;;;5020796;28;20116;-93
2022/01/29 12:32:34;;;;;;;7.05;1.98;;;;;;;;;;5037736;28;20048;-93
2022/01/29 12:35:03;;;;;;;6.22;1.40;;;;;;;;;;5037431;28;20048;-93
2022/01/29 12:37:28;;;;;;;8.93;2.10;;;;;;;;;;5020864;28;20400;-94
2022/01/29 12:40:18;;;;;;;6.38;1.45;;;;;;;;;;5020934;28;20033;-93
2022/01/29 12:42:46;;;;;;;7.80;1.80;;;;;;;;;;5021208;28;20041;-93
2022/01/29 12:45:13;;;;;;;11.00;2.38;;;;;;;;;;5020699;28;20041;-94
2022/01/29 12:47:39;;;;;;;8.25;1.70;;;;;;;;;;5050247;28;20060;-92
2022/01/29 12:50:05;;;;;;;10.10;2.42;;;;;;;;;;5053727;28;20182;-94
2022/01/29 12:52:31;;;;;;;9.13;1.70;;;;;;;;;;5059804;28;20124;-94
2022/01/29 12:55:04;;;;;;;10.13;2.35;;;;;;;;;;5053329;28;20079;-95
2022/01/29 12:57:44;;;;;;;12.77;2.45;;;;;;;;;;5053876;28;20032;-93
2022/01/29 13:00:11;;;;;;;8.40;1.95;;;;;;;;;;5053715;28;20040;-91
2022/01/29 13:02:37;;;;;;;10.25;1.90;;;;;;;;;;5053797;28;20066;-94
2022/01/29 13:05:03;;;;;;;9.73;1.90;;;;;;;;;;5053550;28;20080;-92
2022/01/29 13:07:29;;;;;;;10.45;2.05;;;;;;;;;;5053976;28;20041;-92
2022/01/29 13:09:56;;;;;;;8.63;1.88;;;;;;;;;;5053223;28;20049;-91
2022/01/29 13:12:22;;;;;;;12.38;2.05;;;;;;;;;;5054024;28;20056;-91
2022/01/29 13:14:51;;;;;;;8.73;1.70;;;;;;;;;;5036627;28;20106;-91
2022/01/29 13:17:19;;;;;;;10.90;1.95;;;;;;;;;;5053190;28;20073;-90
2022/01/29 13:19:46;;;;;;;11.82;1.90;;;;;;;;;;5053519;28;20041;-92
2022/01/29 13:22:13;;;;;;;10.18;1.90;;;;;;;;;;5053754;28;20124;-92
2022/01/29 13:24:40;;;;;;;11.75;1.80;;;;;;;;;;5036707;28;20041;-91
2022/01/29 13:27:14;;;;;;;11.25;1.95;;;;;;;;;;5053230;28;20496;-91
2022/01/29 13:29:46;;;;;;;8.10;1.50;;;;;;;;;;5053016;28;20048;-91
2022/01/29 13:32:16;;;;;;;7.22;1.75;;;;;;;;;;5052737;28;20502;-92
2022/01/29 13:34:43;;;;;;;8.02;2.00;;;;;;;;;;5052792;28;20049;-90
2022/01/29 13:37:28;;;;;;;10.55;2.40;;;;;;;;;;5052866;28;20052;-90
2022/01/29 13:39:55;;;;;;;15.10;2.25;;;;;;;;;;5037479;28;20048;-90
2022/01/29 13:42:21;;;;;;;7.18;1.58;;;;;;;;;;5052991;28;20494;-91
2022/01/29 13:45:04;;;;;;;10.50;1.73;;;;;;;;;;5053099;28;20037;-91
2022/01/29 13:47:30;;;;;;;11.65;1.73;;;;;;;;;;5052738;28;20063;-89
2022/01/29 13:49:56;;;;;;;9.95;2.08;;;;;;;;;;5036247;28;20047;-91
2022/01/29 13:52:25;;;;;;;5.25;1.33;;;;;;;;;;5036263;28;20103;-90
2022/01/29 13:54:52;;;;;;;11.40;2.42;;;;;;;;;;5053012;28;20131;-92
2022/01/29 13:57:20;;;;;;;11.02;1.80;;;;;;;;;;5052527;28;20457;-90
2022/01/29 13:59:59;;;;;;;7.43;1.60;;;;;;;;;;5052748;28;20044;-90
2022/01/29 14:02:25;;;;;;;10.43;1.90;;;;;;;;;;5052734;28;20037;-91
2022/01/29 14:05:01;;;;;;;8.35;1.83;;;;;;;;;;5053248;28;20036;-94
2022/01/29 14:07:30;;;;;;;8.68;1.65;;;;;;;;;;5036819;28;20093;-94
2022/01/29 14:10:00;;;;;;;11.07;1.70;;;;;;;;;;5052795;28;20045;-92
2022/01/29 14:12:28;;;;;;;9.50;1.70;;;;;;;;;;5038141;28;20123;-91
2022/01/29 14:14:55;;;;;;;8.68;1.90;;;;;;;;;;5056863;28;20049;-94
2022/01/29 14:17:32;;;;;;;10.23;1.63;;;;;;;;;;5054450;28;20049;-93
2022/01/29 14:20:00;;;;;;;12.35;1.75;;;;;;;;;;5057307;28;20037;-93
2022/01/29 14:22:27;;;;;;;10.77;1.70;;;;;;;;;;5054897;28;20041;-95
2022/01/29 14:24:59;;;;;;;7.93;1.20;;;;;;;;;;5056060;28;20041;-94
2022/01/29 14:27:25;;;;;;;7.10;1.65;;;;;;;;;;5038189;28;20209;-93
2022/01/29 14:29:51;;;;;;;8.00;1.20;;;;;;;;;;5037735;28;20041;-92
2022/01/29 14:32:18;;;;;;;11.40;1.92;;;;;;;;;;5045847;28;20087;-94
2022/01/29 14:34:44;;;;;;;8.65;1.48;;;;;;;;;;5053203;28;20094;-93
2022/01/29 14:37:11;;;;;;;7.43;1.50;;;;;;;;;;5036859;28;20041;-94
2022/01/29 14:39:37;;;;;;;7.35;1.70;;;;;;;;;;5053643;28;20143;-93
2022/01/29 14:42:07;;;;;;;4.65;0.93;;;;;;;;;;5056953;28;20518;-94
2022/01/29 14:44:33;;;;;;;9.60;2.00;;;;;;;;;;5039726;28;20041;-92
2022/01/29 14:46:59;;;;;;;9.45;1.83;;;;;;;;;;5056060;28;20425;-94